Time;durP1;ratioP1;P1;durP2;ratioP2;P2;SDS_P1;SDS_P2;PMS_P1;PMS_P2;Temp;Humidity;BMP_temperature;BMP_pressure;BME280_temperature;BME280_humidity;BME280_pressure;Samples;Min_cycle;Max_cycle;Signal;HPM_P1;HPM_P2
2021/12/01 00:01:54;;;;;;;12.70;7.97;;;;;;;-0.36;75.34;97424.58;1686986;82;21019;-62
2021/12/01 00:04:20;;;;;;;14.80;8.90;;;;;;;-0.34;75.34;97422.92;1702851;81;21066;-64
2021/12/01 00:06:47;;;;;;;18.17;9.48;;;;;;;-0.32;75.27;97418.80;1693117;82;21028;-62
2021/12/01 00:09:13;;;;;;;15.43;9.55;;;;;;;-0.29;75.22;97424.96;1705115;82;21188;-63
2021/12/01 00:11:40;;;;;;;14.47;9.73;;;;;;;-0.26;75.04;97426.28;1687562;83;21045;-62
2021/12/01 00:14:06;;;;;;;14.20;8.83;;;;;;;-0.22;74.92;97431.91;1710063;81;21544;-62
2021/12/01 00:16:34;;;;;;;14.18;9.15;;;;;;;-0.21;74.68;97431.59;1697360;81;21051;-62
2021/12/01 00:19:01;;;;;;;12.95;8.60;;;;;;;-0.18;74.62;97436.95;1705569;81;21139;-62
2021/12/01 00:21:27;;;;;;;14.25;8.60;;;;;;;-0.16;74.59;97433.41;1685006;83;21590;-63
2021/12/01 00:23:55;;;;;;;13.45;8.20;;;;;;;-0.17;74.55;97435.30;1707473;81;21024;-62
2021/12/01 00:26:22;;;;;;;15.25;9.08;;;;;;;-0.17;74.57;97431.23;1714972;82;21013;-63
2021/12/01 00:28:49;;;;;;;16.57;9.78;;;;;;;-0.14;74.35;97434.69;1704414;82;21530;-62
2021/12/01 00:31:15;;;;;;;16.12;9.33;;;;;;;-0.14;74.37;97432.55;1704233;81;21026;-63
2021/12/01 00:33:42;;;;;;;14.75;9.55;;;;;;;-0.15;74.55;97432.28;1715780;82;21140;-62
2021/12/01 00:36:13;;;;;;;15.32;8.38;;;;;;;-0.16;74.64;97432.05;1700553;82;21056;-62
2021/12/01 00:38:37;;;;;;;14.07;8.05;;;;;;;-0.20;74.91;97422.91;1706522;82;21076;-62
2021/12/01 00:41:07;;;;;;;17.70;9.48;;;;;;;-0.22;75.31;97421.86;1698473;82;21032;-62
2021/12/01 00:43:38;;;;;;;19.85;10.05;;;;;;;-0.26;75.65;97423.00;1697273;82;21044;-63
2021/12/01 00:46:13;;;;;;;15.60;10.00;;;;;;;-0.29;75.95;97414.12;1694589;81;21176;-63
2021/12/01 00:48:40;;;;;;;16.52;10.35;;;;;;;-0.33;76.39;97415.84;1679647;83;21532;-63
2021/12/01 00:51:07;;;;;;;13.28;9.05;;;;;;;-0.34;76.85;97405.33;1672275;83;21570;-63
2021/12/01 00:53:35;;;;;;;18.25;9.80;;;;;;;-0.33;77.11;97399.61;1677754;83;20999;-63
2021/12/01 00:56:02;;;;;;;16.32;10.25;;;;;;;-0.33;77.36;97391.48;1669841;83;21226;-62
2021/12/01 00:58:29;;;;;;;14.10;9.45;;;;;;;-0.33;77.53;97397.45;1710305;82;21577;-63
2021/12/01 01:00:55;;;;;;;14.33;10.00;;;;;;;-0.35;77.67;97389.63;1696998;82;21146;-62
2021/12/01 01:03:22;;;;;;;19.98;10.90;;;;;;;-0.34;77.82;97382.31;1699326;82;21514;-63
2021/12/01 01:05:49;;;;;;;17.98;11.12;;;;;;;-0.34;77.93;97385.80;1701378;82;21039;-62
2021/12/01 01:08:17;;;;;;;15.28;10.20;;;;;;;-0.35;78.14;97386.11;1699744;82;21019;-63
2021/12/01 01:17:06;;;;;;;16.25;10.32;;;;;;;-0.36;78.44;97386.68;1626896;86;22446;-62
2021/12/01 01:18:45;;;;;;;16.90;10.88;;;;;;;-0.40;78.62;97387.83;1663816;84;21592;-63
2021/12/01 01:21:14;;;;;;;15.28;9.45;;;;;;;-0.40;78.81;97383.77;1712678;82;21548;-64
2021/12/01 01:23:40;;;;;;;14.93;9.93;;;;;;;-0.45;79.15;97387.92;1702635;81;21824;-62
2021/12/01 01:26:10;;;;;;;20.92;11.10;;;;;;;-0.48;79.57;97383.11;1696178;81;21047;-63
2021/12/01 01:28:38;;;;;;;18.98;10.95;;;;;;;-0.48;79.60;97375.53;1704155;82;21065;-63
2021/12/01 01:31:05;;;;;;;17.57;10.48;;;;;;;-0.51;79.58;97369.61;1702430;82;21106;-63
2021/12/01 01:33:32;;;;;;;16.90;10.38;;;;;;;-0.53;79.69;97365.05;1683234;83;21063;-64
2021/12/01 01:35:58;;;;;;;14.98;9.40;;;;;;;-0.54;79.88;97351.81;1706760;81;21184;-65
2021/12/01 01:38:28;;;;;;;17.23;9.53;;;;;;;-0.55;80.05;97350.23;1699984;82;21528;-63
2021/12/01 01:40:55;;;;;;;14.70;9.35;;;;;;;-0.60;80.30;97351.13;1680446;83;21107;-63
2021/12/01 01:43:23;;;;;;;19.12;10.13;;;;;;;-0.63;80.49;97347.11;1665952;82;21124;-63
2021/12/01 01:45:54;;;;;;;14.98;9.30;;;;;;;-0.64;80.75;97337.94;1659077;84;21048;-63
2021/12/01 01:48:30;;;;;;;18.67;10.03;;;;;;;-0.63;80.79;97340.88;1699344;83;21090;-62
2021/12/01 01:50:51;;;;;;;13.95;9.10;;;;;;;-0.67;80.93;97331.23;1704335;82;21103;-64
2021/12/01 01:53:28;;;;;;;17.87;9.28;;;;;;;-0.64;81.23;97330.63;1703898;81;21027;-62
2021/12/01 01:55:57;;;;;;;17.10;10.00;;;;;;;-0.59;81.34;97328.91;1710173;82;21055;-62
2021/12/01 01:58:25;;;;;;;19.17;9.15;;;;;;;-0.58;81.27;97324.55;1696355;83;21567;-62
2021/12/01 02:01:09;;;;;;;14.78;9.48;;;;;;;-0.62;81.30;97326.27;1647711;85;21137;-62
2021/12/01 02:03:28;;;;;;;15.78;9.68;;;;;;;-0.65;81.36;97320.11;1685912;82;21008;-64
2021/12/01 02:05:56;;;;;;;15.00;9.65;;;;;;;-0.66;81.59;97315.78;1662136;85;21109;-63
2021/12/01 02:08:33;;;;;;;16.70;9.70;;;;;;;-0.66;81.69;97311.19;1705162;82;21046;-63
2021/12/01 02:11:03;;;;;;;12.43;8.05;;;;;;;-0.64;81.83;97312.23;1676440;83;21099;-63
2021/12/01 02:13:32;;;;;;;14.00;8.75;;;;;;;-0.67;81.95;97302.83;1701064;82;22207;-63
2021/12/01 02:15:58;;;;;;;16.35;9.38;;;;;;;-0.67;82.09;97306.08;1711427;81;21015;-64
2021/12/01 02:18:25;;;;;;;14.73;9.55;;;;;;;-0.66;82.20;97294.95;1691051;83;21041;-62
2021/12/01 02:21:26;;;;;;;14.63;9.78;;;;;;;-0.67;82.31;97299.31;1703493;82;21080;-63
2021/12/01 02:23:49;;;;;;;14.55;8.93;;;;;;;-0.67;82.39;97293.91;1683784;82;21155;-61
2021/12/01 02:26:19;;;;;;;16.93;9.50;;;;;;;-0.68;82.48;97290.96;1709834;82;21800;-62
2021/12/01 02:28:49;;;;;;;13.08;9.08;;;;;;;-0.68;82.56;97294.45;1686230;82;21005;-61
2021/12/01 02:31:15;;;;;;;13.68;7.92;;;;;;;-0.65;82.61;97290.36;1691540;83;21531;-62
2021/12/01 02:33:42;;;;;;;13.88;9.00;;;;;;;-0.65;82.65;97293.06;1703187;82;21016;-62
2021/12/01 02:36:10;;;;;;;15.08;9.75;;;;;;;-0.67;82.51;97285.79;1698094;82;21075;-61
2021/12/01 02:38:59;;;;;;;14.25;9.25;;;;;;;-0.71;82.61;97292.34;1679386;82;21805;-61
2021/12/01 02:41:30;;;;;;;16.45;8.53;;;;;;;-0.70;82.75;97290.45;1654467;84;21017;-62
2021/12/01 02:43:58;;;;;;;13.48;8.43;;;;;;;-0.71;82.86;97288.83;1640699;84;21525;-62
2021/12/01 02:46:25;;;;;;;14.73;8.78;;;;;;;-0.73;83.05;97289.13;1671484;83;21076;-62
2021/12/01 02:48:51;;;;;;;21.87;9.58;;;;;;;-0.73;83.12;97294.55;1654987;85;21021;-62
2021/12/01 02:51:24;;;;;;;15.85;9.13;;;;;;;-0.71;83.31;97290.19;1666648;84;21218;-63
2021/12/01 02:53:48;;;;;;;17.82;9.83;;;;;;;-0.68;83.36;97286.33;1689211;83;21754;-62
2021/12/01 02:56:15;;;;;;;16.12;9.35;;;;;;;-0.64;83.38;97282.48;1687219;83;21028;-63
2021/12/01 02:58:41;;;;;;;16.62;9.90;;;;;;;-0.64;83.31;97288.70;1631279;86;21090;-61
2021/12/01 03:01:15;;;;;;;15.65;9.30;;;;;;;-0.65;83.32;97293.84;1710404;81;21016;-62
2021/12/01 03:03:42;;;;;;;;;;;;;;;-0.64;83.41;97290.59;1724059;81;21923;-62
2021/12/01 03:06:09;;;;;;;15.13;9.05;;;;;;;-0.63;83.41;97282.17;1696636;82;20138;-62
2021/12/01 03:08:35;;;;;;;17.00;8.85;;;;;;;-0.64;83.38;97291.95;1696032;82;21068;-63
2021/12/01 03:11:02;;;;;;;15.83;10.08;;;;;;;-0.65;83.52;97279.53;1690130;82;21151;-64
2021/12/01 03:13:29;;;;;;;17.65;9.90;;;;;;;-0.64;83.63;97280.58;1699211;82;21812;-63
2021/12/01 03:15:56;;;;;;;17.75;10.13;;;;;;;-0.64;83.57;97284.64;1678975;83;21107;-63
2021/12/01 03:18:22;;;;;;;14.73;9.43;;;;;;;-0.64;83.76;97275.17;1707860;81;21041;-62
2021/12/01 03:20:50;;;;;;;15.03;9.13;;;;;;;-0.62;83.93;97285.69;1698490;81;21004;-63
2021/12/01 03:23:17;;;;;;;14.00;8.80;;;;;;;-0.59;84.01;97285.63;1705529;82;20990;-62
2021/12/01 03:25:44;;;;;;;13.55;9.00;;;;;;;-0.59;84.03;97281.03;1702015;82;21036;-62
2021/12/01 03:28:10;;;;;;;17.52;10.13;;;;;;;-0.60;84.20;97284.84;1688657;82;21162;-63
2021/12/01 03:30:38;;;;;;;14.28;9.55;;;;;;;-0.60;84.24;97281.33;1709735;82;20997;-62
2021/12/01 03:33:09;;;;;;;16.20;8.43;;;;;;;-0.62;84.37;97276.22;1704957;82;21024;-63
2021/12/01 03:35:37;;;;;;;16.20;10.48;;;;;;;-0.63;84.58;97270.55;1701056;82;21214;-62
2021/12/01 03:38:04;;;;;;;17.15;9.33;;;;;;;-0.63;84.71;97272.70;1706698;81;21200;-62
2021/12/01 03:40:31;;;;;;;14.15;9.03;;;;;;;-0.59;84.88;97280.22;1707032;82;22609;-63
2021/12/01 03:42:58;;;;;;;13.88;8.73;;;;;;;-0.55;84.94;97273.92;1693342;82;21034;-63
2021/12/01 03:45:24;;;;;;;12.90;8.20;;;;;;;-0.56;84.91;97273.66;1723303;82;21094;-63
2021/12/01 03:47:51;;;;;;;13.85;8.45;;;;;;;-0.57;84.99;97274.77;1714596;82;21043;-63
2021/12/01 03:50:18;;;;;;;16.10;9.08;;;;;;;-0.55;85.04;97277.98;1702349;82;21474;-63
2021/12/01 03:52:45;;;;;;;14.90;9.03;;;;;;;-0.51;85.09;97278.16;1704992;81;21128;-63
2021/12/01 03:55:12;;;;;;;14.38;10.10;;;;;;;-0.47;85.14;97281.88;1713186;82;21100;-62
2021/12/01 03:57:40;;;;;;;17.32;9.23;;;;;;;-0.43;85.13;97281.53;1705372;82;20997;-62
2021/12/01 04:00:11;;;;;;;14.38;9.18;;;;;;;-0.39;85.11;97280.34;1684462;83;21059;-62
2021/12/01 04:02:39;;;;;;;20.55;9.70;;;;;;;-0.34;85.12;97276.77;1687907;82;21053;-62
2021/12/01 04:05:07;;;;;;;17.07;9.35;;;;;;;-0.33;85.03;97283.22;1706890;82;21449;-62
2021/12/01 04:07:34;;;;;;;13.45;8.95;;;;;;;-0.33;84.97;97274.29;1712878;82;21625;-62
2021/12/01 04:10:01;;;;;;;15.80;9.30;;;;;;;-0.31;85.11;97274.25;1711206;81;21049;-62
2021/12/01 04:12:28;;;;;;;15.10;8.80;;;;;;;-0.28;85.07;97270.13;1708897;82;20988;-62
2021/12/01 04:14:54;;;;;;;12.78;8.75;;;;;;;-0.27;84.98;97269.81;1706471;82;21607;-62
2021/12/01 04:17:21;;;;;;;12.50;8.15;;;;;;;-0.26;85.08;97272.77;1710219;82;21144;-62
2021/12/01 04:19:47;;;;;;;17.67;10.45;;;;;;;-0.26;85.05;97272.77;1710737;82;21052;-62
2021/12/01 04:22:13;;;;;;;16.73;10.93;;;;;;;-0.27;84.99;97269.81;1686747;81;21296;-62
2021/12/01 04:24:41;;;;;;;16.25;10.28;;;;;;;-0.26;85.12;97267.92;1707770;82;21535;-62
2021/12/01 04:27:09;;;;;;;22.20;11.22;;;;;;;-0.26;85.15;97264.64;1709116;81;21115;-61
2021/12/01 04:29:35;;;;;;;15.78;9.78;;;;;;;-0.26;85.24;97266.00;1676159;82;21144;-62
2021/12/01 04:32:02;;;;;;;18.50;10.23;;;;;;;-0.23;85.34;97265.95;1703463;82;21509;-62
2021/12/01 04:34:29;;;;;;;17.80;9.60;;;;;;;-0.25;85.35;97260.84;1714621;81;21550;-62
2021/12/01 04:36:55;;;;;;;16.30;10.03;;;;;;;-0.25;85.45;97254.63;1718522;82;21012;-62
2021/12/01 04:39:22;;;;;;;18.73;11.12;;;;;;;-0.26;85.56;97253.03;1683234;82;21008;-62
2021/12/01 04:41:55;;;;;;;19.07;10.20;;;;;;;-0.27;85.64;97256.28;1669785;83;21300;-62
2021/12/01 04:44:22;;;;;;;13.75;9.80;;;;;;;-0.28;85.77;97249.28;1697906;83;21095;-62
2021/12/01 04:46:52;;;;;;;15.68;10.15;;;;;;;-0.27;85.92;97258.98;1680014;82;21011;-62
2021/12/01 04:49:20;;;;;;;21.62;10.65;;;;;;;-0.25;86.00;97258.69;1701619;82;21087;-61
2021/12/01 04:51:50;;;;;;;18.55;10.50;;;;;;;-0.25;85.98;97262.74;1706629;82;21588;-61
2021/12/01 04:54:17;;;;;;;15.35;9.95;;;;;;;-0.23;86.10;97257.84;1708511;82;21178;-62
2021/12/01 04:56:46;;;;;;;19.10;11.08;;;;;;;-0.20;86.20;97265.89;1718219;82;21625;-61
2021/12/01 04:59:13;;;;;;;15.32;9.40;;;;;;;-0.19;86.23;97266.16;1706237;82;21526;-61
2021/12/01 05:01:41;;;;;;;14.23;9.35;;;;;;;-0.17;86.22;97272.85;1703469;82;21077;-61
2021/12/01 05:04:10;;;;;;;18.73;10.68;;;;;;;-0.15;86.20;97271.19;1717671;82;21117;-61
2021/12/01 05:06:38;;;;;;;19.32;10.35;;;;;;;-0.14;86.22;97271.45;1705352;82;21566;-62
2021/12/01 05:09:06;;;;;;;20.82;10.38;;;;;;;-0.14;86.17;97270.11;1713042;82;21085;-61
2021/12/01 05:11:33;;;;;;;15.38;9.45;;;;;;;-0.13;86.23;97264.92;1721520;82;21016;-63
2021/12/01 05:13:59;;;;;;;16.62;9.60;;;;;;;-0.14;86.27;97272.23;1716238;81;21079;-61
2021/12/01 05:16:26;;;;;;;14.63;8.63;;;;;;;-0.14;86.22;97272.81;1719026;82;21042;-62
2021/12/01 05:18:53;;;;;;;15.88;9.18;;;;;;;-0.16;86.21;97273.66;1725796;82;21091;-61
2021/12/01 05:21:19;;;;;;;15.05;9.38;;;;;;;-0.19;86.33;97271.56;1708539;82;21070;-62
2021/12/01 05:23:46;;;;;;;14.20;8.43;;;;;;;-0.22;86.38;97275.67;1712054;82;21475;-62
2021/12/01 05:26:12;;;;;;;13.35;8.78;;;;;;;-0.23;86.47;97278.14;1711986;82;21052;-63
2021/12/01 05:28:40;;;;;;;14.73;8.60;;;;;;;-0.25;86.56;97278.44;1714143;82;21084;-63
2021/12/01 05:31:07;;;;;;;13.30;8.73;;;;;;;-0.26;86.71;97276.82;1711282;82;21536;-63
2021/12/01 05:33:34;;;;;;;14.63;8.68;;;;;;;-0.25;86.84;97285.75;1718726;82;21079;-63
2021/12/01 05:36:01;;;;;;;13.62;8.75;;;;;;;-0.23;86.99;97288.16;1726156;82;21097;-63
2021/12/01 05:38:27;;;;;;;14.90;8.53;;;;;;;-0.21;87.09;97292.72;1706213;82;21117;-62
2021/12/01 05:40:54;;;;;;;12.63;8.70;;;;;;;-0.20;87.17;97297.83;1681205;82;21095;-62
2021/12/01 05:43:21;;;;;;;18.75;8.03;;;;;;;-0.17;87.24;97297.79;1699090;82;21115;-63
2021/12/01 05:45:48;;;;;;;13.43;8.03;;;;;;;-0.14;87.31;97304.73;1690048;82;21035;-63
2021/12/01 05:48:14;;;;;;;12.00;7.60;;;;;;;-0.12;87.32;97308.52;1708476;82;21544;-62
2021/12/01 05:50:42;;;;;;;14.33;7.92;;;;;;;-0.13;87.26;97306.89;1718179;82;21292;-63
2021/12/01 05:53:09;;;;;;;14.23;8.58;;;;;;;-0.15;87.33;97302.33;1710132;82;21015;-63
2021/12/01 05:55:39;;;;;;;14.93;8.90;;;;;;;-0.14;87.38;97312.85;1706454;82;21226;-61
2021/12/01 05:58:06;;;;;;;17.02;8.68;;;;;;;-0.15;87.45;97319.92;1698949;82;21080;-61
2021/12/01 06:00:33;;;;;;;15.80;8.53;;;;;;;-0.16;87.55;97323.75;1686643;82;21068;-62
2021/12/01 06:03:00;;;;;;;10.80;7.95;;;;;;;-0.15;87.71;97327.50;1711465;82;21123;-62
2021/12/01 06:05:27;;;;;;;12.37;8.33;;;;;;;-0.12;87.83;97328.82;1716304;82;21073;-61
2021/12/01 06:07:54;;;;;;;15.80;8.80;;;;;;;-0.10;87.90;97342.84;1723849;82;21816;-63
2021/12/01 06:10:21;;;;;;;18.82;10.25;;;;;;;-0.07;87.94;97338.16;1709802;82;21489;-61
2021/12/01 06:12:47;;;;;;;17.75;9.63;;;;;;;-0.03;87.97;97345.95;1682309;83;21070;-61
2021/12/01 06:15:16;;;;;;;16.12;9.05;;;;;;;0.01;88.02;97345.33;1721872;82;21003;-63
2021/12/01 06:17:45;;;;;;;17.77;9.40;;;;;;;0.02;88.04;97350.44;1694860;82;21125;-63
2021/12/01 06:20:12;;;;;;;14.68;9.38;;;;;;;0.04;88.06;97352.84;1715686;82;21124;-62
2021/12/01 06:22:40;;;;;;;15.15;9.25;;;;;;;0.04;88.09;97358.27;1688344;83;21181;-62
2021/12/01 06:25:08;;;;;;;17.65;9.00;;;;;;;0.04;88.12;97361.78;1711108;82;21508;-63
2021/12/01 06:27:36;;;;;;;15.25;9.50;;;;;;;0.08;88.19;97372.81;1714235;82;21104;-63
2021/12/01 06:30:05;;;;;;;17.42;9.93;;;;;;;0.09;88.15;97370.34;1719804;82;21060;-62
2021/12/01 06:32:33;;;;;;;26.17;11.33;;;;;;;0.10;88.23;97367.91;1715326;82;21521;-62
2021/12/01 06:34:59;;;;;;;18.32;9.85;;;;;;;0.10;88.27;97365.97;1693213;82;20986;-64
2021/12/01 06:37:26;;;;;;;20.23;10.20;;;;;;;0.14;88.31;97373.52;1712926;82;21063;-64
2021/12/01 06:39:53;;;;;;;20.10;11.10;;;;;;;0.15;88.37;97369.15;1711013;82;20993;-63
2021/12/01 06:42:19;;;;;;;15.48;9.18;;;;;;;0.18;88.41;97366.38;1708591;82;21066;-62
2021/12/01 06:44:46;;;;;;;20.65;11.73;;;;;;;0.22;88.43;97378.22;1723859;82;21116;-63
2021/12/01 06:47:14;;;;;;;19.30;10.78;;;;;;;0.26;88.46;97381.13;1715287;82;21119;-64
2021/12/01 06:49:45;;;;;;;16.85;10.05;;;;;;;0.29;88.40;97388.06;1695101;82;21055;-62
2021/12/01 06:52:09;;;;;;;20.65;11.22;;;;;;;0.32;88.38;97383.96;1712123;82;21061;-63
2021/12/01 06:54:35;;;;;;;27.27;11.40;;;;;;;0.34;88.38;97385.82;1704349;82;21047;-63
2021/12/01 06:57:02;;;;;;;22.22;11.88;;;;;;;0.36;88.36;97397.95;1684685;82;21086;-62
2021/12/01 06:59:29;;;;;;;20.68;9.90;;;;;;;0.38;88.19;97400.89;1687165;82;21047;-63
2021/12/01 07:01:55;;;;;;;18.60;9.75;;;;;;;0.37;88.08;97412.30;1726220;81;21016;-63
2021/12/01 07:04:22;;;;;;;12.60;8.05;;;;;;;0.35;88.04;97415.86;1719262;82;21554;-62
2021/12/01 07:06:48;;;;;;;15.13;9.13;;;;;;;0.35;88.14;97415.86;1693409;83;21043;-62
2021/12/01 07:09:21;;;;;;;17.80;9.75;;;;;;;0.35;88.13;97418.03;1709257;82;21098;-62
2021/12/01 07:11:47;;;;;;;15.75;8.38;;;;;;;0.36;88.23;97421.52;1729702;81;21067;-62
2021/12/01 07:14:14;;;;;;;14.83;9.50;;;;;;;0.40;88.22;97428.49;1683495;82;21906;-62
2021/12/01 07:16:40;;;;;;;13.10;8.23;;;;;;;0.42;88.32;97435.77;1696170;82;21050;-62
2021/12/01 07:19:06;;;;;;;12.82;8.00;;;;;;;0.48;88.45;97437.26;1710002;82;21065;-64
2021/12/01 07:21:35;;;;;;;13.00;7.40;;;;;;;0.54;88.38;97440.13;1714353;82;21154;-63
2021/12/01 07:24:03;;;;;;;10.45;7.12;;;;;;;0.59;88.28;97445.44;1718537;82;21008;-62
2021/12/01 07:26:30;;;;;;;12.47;7.97;;;;;;;0.62;88.09;97442.66;1690243;82;21024;-63
2021/12/01 07:28:56;;;;;;;13.32;7.85;;;;;;;0.63;88.02;97446.98;1686139;83;21004;-62
2021/12/01 07:31:23;;;;;;;13.15;8.23;;;;;;;0.66;87.87;97453.16;1704835;82;21036;-63
2021/12/01 07:33:50;;;;;;;13.72;8.08;;;;;;;0.67;87.64;97449.87;1707326;82;21779;-62
2021/12/01 07:36:16;;;;;;;13.20;8.20;;;;;;;0.66;87.55;97455.86;1725926;82;21038;-63
2021/12/01 07:38:43;;;;;;;12.93;8.50;;;;;;;0.66;87.45;97450.98;1727489;81;21006;-62
2021/12/01 07:41:10;;;;;;;13.35;7.80;;;;;;;0.69;87.41;97456.61;1705398;82;21034;-61
2021/12/01 07:43:37;;;;;;;14.83;8.90;;;;;;;0.72;87.34;97457.89;1707546;82;21193;-63
2021/12/01 07:46:03;;;;;;;16.90;9.83;;;;;;;0.75;87.31;97456.49;1718266;82;21772;-61
2021/12/01 07:48:32;;;;;;;16.97;9.60;;;;;;;0.79;87.20;97462.89;1710008;82;21032;-62
2021/12/01 07:50:58;;;;;;;17.87;9.53;;;;;;;0.82;87.09;97469.08;1699133;82;21542;-62
2021/12/01 07:53:25;;;;;;;14.95;8.30;;;;;;;0.84;87.12;97462.23;1723851;81;21037;-63
2021/12/01 07:55:55;;;;;;;13.62;8.40;;;;;;;0.88;86.99;97458.36;1719370;82;21030;-63
2021/12/01 07:58:22;;;;;;;13.32;9.80;;;;;;;0.89;86.84;97469.45;1713308;82;21247;-62
2021/12/01 08:00:48;;;;;;;14.70;8.83;;;;;;;0.88;86.73;97466.49;1715875;82;21536;-62
2021/12/01 08:03:15;;;;;;;20.77;9.73;;;;;;;0.87;86.70;97473.01;1708584;82;21075;-62
2021/12/01 08:05:41;;;;;;;18.15;9.48;;;;;;;0.85;86.66;97483.38;1682664;82;21000;-63
2021/12/01 08:08:10;;;;;;;12.68;8.88;;;;;;;0.83;86.75;97487.76;1711401;82;21567;-62
2021/12/01 08:10:37;;;;;;;17.00;11.18;;;;;;;0.85;86.87;97488.80;1703659;82;21154;-62
2021/12/01 08:13:04;;;;;;;16.55;9.65;;;;;;;0.87;86.84;97491.99;1698696;82;21099;-62
2021/12/01 08:15:31;;;;;;;17.85;10.85;;;;;;;0.85;86.80;97498.30;1719270;81;21026;-62
2021/12/01 08:17:59;;;;;;;20.65;10.63;;;;;;;0.83;86.80;97501.31;1702435;82;20999;-64
2021/12/01 08:20:26;;;;;;;16.93;10.80;;;;;;;0.83;86.81;97499.15;1718487;82;21027;-63
2021/12/01 08:22:54;;;;;;;18.15;10.90;;;;;;;0.82;86.84;97503.77;1711229;82;22322;-63
2021/12/01 08:25:23;;;;;;;17.48;10.68;;;;;;;0.80;86.79;97506.55;1688458;82;21485;-64
2021/12/01 08:27:49;;;;;;;20.40;11.15;;;;;;;0.79;86.96;97511.16;1708526;82;21497;-63
2021/12/01 08:30:16;;;;;;;21.02;11.83;;;;;;;0.78;86.93;97516.34;1703755;82;21214;-65
2021/12/01 08:32:45;;;;;;;20.15;11.88;;;;;;;0.77;86.95;97522.07;1725813;82;21062;-64
2021/12/01 08:35:11;;;;;;;18.20;10.90;;;;;;;0.75;86.91;97523.70;1707789;82;21173;-64
2021/12/01 08:37:38;;;;;;;30.00;14.25;;;;;;;0.72;86.99;97525.13;1681889;83;21033;-64
2021/12/01 08:40:07;;;;;;;35.68;16.55;;;;;;;0.69;87.04;97529.80;1709254;82;21121;-64
2021/12/01 08:42:34;;;;;;;39.80;18.80;;;;;;;0.68;87.31;97526.83;1684511;83;21645;-63
2021/12/01 08:45:02;;;;;;;34.53;16.95;;;;;;;0.68;87.37;97528.18;1719646;82;21011;-63
2021/12/01 08:47:31;;;;;;;26.73;15.40;;;;;;;0.70;87.58;97529.27;1714755;82;21532;-63
2021/12/01 08:49:58;;;;;;;24.63;14.98;;;;;;;0.73;87.74;97530.78;1709801;82;21008;-64
2021/12/01 08:52:25;;;;;;;20.68;13.65;;;;;;;0.78;87.77;97535.87;1698440;82;21292;-64
2021/12/01 08:54:52;;;;;;;29.37;13.88;;;;;;;0.79;87.84;97538.27;1696492;82;21109;-64
2021/12/01 08:57:18;;;;;;;26.00;13.38;;;;;;;0.81;87.88;97539.32;1709901;82;21147;-64
2021/12/01 08:59:47;;;;;;;21.73;11.35;;;;;;;0.89;88.05;97541.89;1689019;82;21209;-64
2021/12/01 09:02:13;;;;;;;23.12;12.53;;;;;;;0.97;88.02;97537.88;1710829;81;21001;-64
2021/12/01 09:04:39;;;;;;;21.23;13.28;;;;;;;1.02;87.88;97547.02;1712974;82;21479;-65
2021/12/01 09:07:08;;;;;;;24.50;13.60;;;;;;;1.07;87.74;97556.41;1709851;82;20983;-63
2021/12/01 09:09:35;;;;;;;22.15;13.50;;;;;;;1.06;87.54;97561.56;1710399;82;21043;-64
2021/12/01 09:12:02;;;;;;;25.92;14.65;;;;;;;1.02;87.50;97564.11;1701326;81;21143;-64
2021/12/01 09:14:29;;;;;;;23.35;14.35;;;;;;;1.03;87.53;97567.61;1710063;82;21491;-64
2021/12/01 09:16:55;;;;;;;24.15;15.13;;;;;;;1.05;87.60;97572.99;1715402;82;21086;-64
2021/12/01 09:19:23;;;;;;;20.55;12.03;;;;;;;1.07;87.43;97578.11;1699377;82;21151;-64
2021/12/01 09:21:50;;;;;;;23.60;13.35;;;;;;;1.08;87.35;97580.52;1714939;82;21064;-63
2021/12/01 09:24:18;;;;;;;22.60;12.30;;;;;;;1.03;86.89;97585.23;1683534;82;22025;-64
2021/12/01 09:26:44;;;;;;;25.02;12.45;;;;;;;1.00;87.05;97585.30;1710083;82;21051;-65
2021/12/01 09:29:11;;;;;;;23.18;12.95;;;;;;;0.99;87.11;97585.04;1724514;82;21068;-64
2021/12/01 09:31:38;;;;;;;20.08;11.88;;;;;;;1.01;87.11;97582.05;1708012;82;21163;-64
2021/12/01 09:34:04;;;;;;;19.40;10.85;;;;;;;1.02;87.05;97589.88;1720364;82;21062;-65
2021/12/01 09:36:32;;;;;;;20.40;10.70;;;;;;;1.01;86.82;97591.55;1710421;82;21208;-66
2021/12/01 09:38:58;;;;;;;17.85;11.18;;;;;;;1.00;86.83;97602.13;1705277;82;21074;-63
2021/12/01 09:41:25;;;;;;;27.55;12.88;;;;;;;0.98;86.81;97602.44;1689422;82;21011;-64
2021/12/01 09:43:52;;;;;;;16.45;9.28;;;;;;;0.93;86.50;97614.20;1715004;82;21449;-63
2021/12/01 09:46:18;;;;;;;14.75;10.08;;;;;;;0.83;86.49;97619.28;1712724;82;21064;-63
2021/12/01 09:48:45;;;;;;;20.88;12.45;;;;;;;0.81;86.45;97622.03;1676687;83;21210;-63
2021/12/01 09:51:14;;;;;;;15.05;8.93;;;;;;;0.80;86.62;97634.78;1703096;82;21203;-62
2021/12/01 09:53:45;;;;;;;17.20;10.72;;;;;;;0.78;86.48;97636.20;1700769;82;21483;-65
2021/12/01 09:56:11;;;;;;;19.05;10.45;;;;;;;0.73;86.55;97633.82;1724557;82;21001;-63
2021/12/01 09:58:38;;;;;;;29.32;12.70;;;;;;;0.72;86.51;97645.78;1689919;82;21038;-62
2021/12/01 10:01:09;;;;;;;17.12;9.38;;;;;;;0.69;86.60;97655.06;1711976;82;21136;-63
2021/12/01 10:03:36;;;;;;;20.48;11.08;;;;;;;0.71;86.75;97658.28;1715652;82;21028;-63
2021/12/01 10:06:10;;;;;;;20.55;10.55;;;;;;;0.70;86.65;97661.55;1709131;82;21469;-64
2021/12/01 10:08:42;;;;;;;23.30;13.00;;;;;;;0.71;86.60;97661.81;1705667;82;21176;-64
2021/12/01 10:11:11;;;;;;;;;;;;;;;0.71;86.58;97671.84;1704513;82;21053;-63
2021/12/01 10:13:43;;;;;;;20.52;10.08;;;;;;;0.70;86.56;97671.61;1714003;82;21140;-64
2021/12/01 10:16:14;;;;;;;15.90;10.63;;;;;;;0.68;86.64;97681.37;1722097;82;21046;-62
2021/12/01 10:18:43;;;;;;;17.50;10.03;;;;;;;0.70;86.79;97686.52;1698814;83;21143;-63
2021/12/01 10:21:16;;;;;;;16.25;7.28;;;;;;;0.72;86.67;97685.10;1702846;82;21009;-63
2021/12/01 10:23:47;;;;;;;16.50;9.58;;;;;;;0.67;86.32;97689.26;1718349;82;21535;-64
2021/12/01 10:26:25;;;;;;;20.32;10.10;;;;;;;0.59;87.40;97693.48;1690696;83;21064;-64
2021/12/01 10:28:58;;;;;;;17.25;9.53;;;;;;;0.59;87.96;97686.70;1699624;82;21026;-63
2021/12/01 10:31:39;;;;;;;22.42;12.10;;;;;;;0.57;88.68;97698.38;1705546;81;21045;-63
2021/12/01 10:34:36;;;;;;;20.10;11.18;;;;;;;0.54;90.00;97698.17;1693515;82;21091;-63
2021/12/01 10:37:23;;;;;;;16.65;9.73;;;;;;;0.54;90.31;97698.17;1707599;81;22153;-63
2021/12/01 10:40:12;;;;;;;15.88;9.75;;;;;;;0.54;90.01;97696.82;1702827;82;21213;-62
2021/12/01 10:43:05;;;;;;;23.32;12.98;;;;;;;0.51;88.97;97699.59;1688832;82;21053;-63
2021/12/01 10:45:38;;;;;;;15.75;8.90;;;;;;;0.44;89.16;97715.42;1701882;82;21010;-65
2021/12/01 10:48:06;;;;;;;;;;;;;;;0.41;89.98;97718.73;1706334;81;21029;-62
2021/12/01 10:50:36;;;;;;;39.53;17.15;;;;;;;0.38;90.72;97716.59;1705465;82;20615;-63
2021/12/01 10:53:13;;;;;;;25.77;13.70;;;;;;;0.42;91.08;97718.44;1701220;82;21045;-64
2021/12/01 10:55:54;;;;;;;14.58;9.38;;;;;;;0.47;92.19;97722.95;1700180;81;21613;-63
2021/12/01 10:58:39;;;;;;;14.23;9.75;;;;;;;0.52;92.98;97720.16;1698160;82;21644;-62
2021/12/01 11:01:20;;;;;;;19.57;11.15;;;;;;;0.57;93.23;97725.49;1668879;83;21037;-62
2021/12/01 11:03:48;;;;;;;15.85;9.45;;;;;;;0.65;93.19;97733.48;1707143;81;21111;-64
2021/12/01 11:06:21;;;;;;;36.17;16.50;;;;;;;0.67;92.15;97734.53;1686731;82;21854;-62
2021/12/01 11:08:58;;;;;;;27.48;14.07;;;;;;;0.66;91.55;97741.89;1708515;82;21073;-63
2021/12/01 11:11:29;;;;;;;21.80;12.33;;;;;;;0.62;90.28;97741.41;1697368;82;21058;-63
2021/12/01 11:14:01;;;;;;;17.75;9.83;;;;;;;0.61;89.74;97747.40;1728262;81;21077;-63
2021/12/01 11:16:28;;;;;;;15.48;10.18;;;;;;;0.58;89.01;97747.99;1708992;82;20976;-63
2021/12/01 11:18:55;;;;;;;15.95;10.18;;;;;;;0.55;89.05;97748.56;1667289;83;21260;-63
2021/12/01 11:21:22;;;;;;;20.17;10.90;;;;;;;0.51;89.25;97751.63;1681748;83;21064;-63
2021/12/01 11:23:53;;;;;;;17.87;10.20;;;;;;;0.52;89.38;97754.58;1714882;82;21064;-64
2021/12/01 11:26:23;;;;;;;27.00;13.95;;;;;;;0.49;92.57;97750.58;1707064;82;21101;-65
2021/12/01 11:28:59;;;;;;;24.35;12.47;;;;;;;0.52;93.83;97747.27;1702006;82;21211;-64
2021/12/01 11:31:43;;;;;;;17.37;10.15;;;;;;;0.57;98.21;97747.72;1695001;82;21945;-63
2021/12/01 11:34:14;;;;;;;16.82;8.85;;;;;;;0.63;91.32;97747.09;1699769;82;21524;-62
2021/12/01 11:36:51;;;;;;;17.98;10.98;;;;;;;0.67;89.40;97759.75;1716674;82;21654;-63
2021/12/01 11:39:24;;;;;;;15.88;10.58;;;;;;;0.68;88.42;97768.13;1701577;82;21082;-61